sensor_id;sensor_type;location;lat;lon;timestamp;pressure;altitude;pressure_sealevel;temperature;humidity
48424;BME280;34232;42.502;26.014;2024-01-15T00:02:16;99743.31;;;-1.77;68.79
48424;BME280;34232;42.502;26.014;2024-01-15T00:04:42;99738.28;;;-1.80;68.96
48424;BME280;34232;42.502;26.014;2024-01-15T00:07:07;99751.91;;;-2.00;68.99
48424;BME280;34232;42.502;26.014;2024-01-15T00:09:33;99743.88;;;-1.92;69.47
48424;BME280;34232;42.502;26.014;2024-01-15T00:11:58;99748.81;;;-1.86;69.60
48424;BME280;34232;42.502;26.014;2024-01-15T00:14:24;99736.72;;;-1.84;68.97
48424;BME280;34232;42.502;26.014;2024-01-15T00:16:49;99738.38;;;-1.83;69.42
48424;BME280;34232;42.502;26.014;2024-01-15T00:19:16;99742.59;;;-1.81;69.47
48424;BME280;34232;42.502;26.014;2024-01-15T00:21:41;99733.13;;;-1.80;69.17
48424;BME280;34232;42.502;26.014;2024-01-15T00:24:07;99733.13;;;-1.80;68.99
48424;BME280;34232;42.502;26.014;2024-01-15T00:26:33;99736.88;;;-1.89;68.38
48424;BME280;34232;42.502;26.014;2024-01-15T00:28:58;99734.34;;;-1.90;68.77
48424;BME280;34232;42.502;26.014;2024-01-15T00:31:23;99737.16;;;-1.96;68.89
48424;BME280;34232;42.502;26.014;2024-01-15T00:33:48;99734.69;;;-1.99;69.27
48424;BME280;34232;42.502;26.014;2024-01-15T00:36:14;99741.53;;;-1.98;69.18
48424;BME280;34232;42.502;26.014;2024-01-15T00:38:40;99733.69;;;-1.95;69.42
48424;BME280;34232;42.502;26.014;2024-01-15T00:41:05;99720.59;;;-1.91;69.81
48424;BME280;34232;42.502;26.014;2024-01-15T00:43:30;99730.31;;;-1.97;69.23
48424;BME280;34232;42.502;26.014;2024-01-15T00:45:56;99728.53;;;-1.95;68.76
48424;BME280;34232;42.502;26.014;2024-01-15T00:48:21;99736.19;;;-1.94;68.04
48424;BME280;34232;42.502;26.014;2024-01-15T00:50:46;99735.59;;;-2.00;67.83
48424;BME280;34232;42.502;26.014;2024-01-15T00:53:12;99736.59;;;-2.04;67.86
48424;BME280;34232;42.502;26.014;2024-01-15T00:55:37;99740.31;;;-2.12;68.62
48424;BME280;34232;42.502;26.014;2024-01-15T00:58:03;99739.38;;;-2.11;68.45
48424;BME280;34232;42.502;26.014;2024-01-15T01:00:28;99741.41;;;-2.19;67.73
48424;BME280;34232;42.502;26.014;2024-01-15T01:02:53;99737.97;;;-2.19;67.78
48424;BME280;34232;42.502;26.014;2024-01-15T01:05:19;99743.09;;;-2.18;68.43
48424;BME280;34232;42.502;26.014;2024-01-15T01:07:44;99738.72;;;-2.16;68.46
48424;BME280;34232;42.502;26.014;2024-01-15T01:10:09;99742.88;;;-2.12;68.80
48424;BME280;34232;42.502;26.014;2024-01-15T01:12:35;99742.88;;;-2.12;68.31
48424;BME280;34232;42.502;26.014;2024-01-15T01:15:01;99746.13;;;-2.06;68.14
48424;BME280;34232;42.502;26.014;2024-01-15T01:17:26;99744.31;;;-2.04;68.01
48424;BME280;34232;42.502;26.014;2024-01-15T01:19:51;99752.94;;;-2.05;67.58
48424;BME280;34232;42.502;26.014;2024-01-15T01:22:17;99741.25;;;-2.14;67.65
48424;BME280;34232;42.502;26.014;2024-01-15T01:24:42;99739.66;;;-2.18;68.30
48424;BME280;34232;42.502;26.014;2024-01-15T01:27:07;99743.19;;;-2.21;68.31
48424;BME280;34232;42.502;26.014;2024-01-15T01:29:33;99741.50;;;-2.22;68.13
48424;BME280;34232;42.502;26.014;2024-01-15T01:31:58;99735.50;;;-2.22;68.35
48424;BME280;34232;42.502;26.014;2024-01-15T01:34:23;99732.09;;;-2.23;68.95
48424;BME280;34232;42.502;26.014;2024-01-15T01:36:49;99731.09;;;-2.19;69.12
48424;BME280;34232;42.502;26.014;2024-01-15T01:39:14;99737.94;;;-2.18;69.58
48424;BME280;34232;42.502;26.014;2024-01-15T01:41:39;99734.47;;;-2.17;68.76
48424;BME280;34232;42.502;26.014;2024-01-15T01:44:05;99739.72;;;-2.20;69.22
48424;BME280;34232;42.502;26.014;2024-01-15T01:46:30;99738.31;;;-2.28;68.05
48424;BME280;34232;42.502;26.014;2024-01-15T01:48:56;99728.16;;;-2.33;67.43
48424;BME280;34232;42.502;26.014;2024-01-15T01:51:22;99731.94;;;-2.43;67.57
48424;BME280;34232;42.502;26.014;2024-01-15T01:53:48;99720.19;;;-2.50;68.06
48424;BME280;34232;42.502;26.014;2024-01-15T01:56:13;99724.16;;;-2.66;68.08
48424;BME280;34232;42.502;26.014;2024-01-15T01:58:39;99720.78;;;-2.93;68.95
48424;BME280;34232;42.502;26.014;2024-01-15T02:01:05;99716.25;;;-2.87;69.44
48424;BME280;34232;42.502;26.014;2024-01-15T02:03:30;99707.66;;;-2.86;70.05
48424;BME280;34232;42.502;26.014;2024-01-15T02:05:56;99705.97;;;-2.87;70.13
48424;BME280;34232;42.502;26.014;2024-01-15T02:08:21;99700.81;;;-2.87;70.44
48424;BME280;34232;42.502;26.014;2024-01-15T02:10:46;99699.88;;;-2.84;69.93
48424;BME280;34232;42.502;26.014;2024-01-15T02:13:12;99698.03;;;-2.80;69.84
48424;BME280;34232;42.502;26.014;2024-01-15T02:15:37;99693.69;;;-2.78;70.23
48424;BME280;34232;42.502;26.014;2024-01-15T02:18:03;99695.56;;;-2.84;70.50
48424;BME280;34232;42.502;26.014;2024-01-15T02:20:29;99698.03;;;-2.80;70.07
48424;BME280;34232;42.502;26.014;2024-01-15T02:25:46;99695.56;;;-2.84;69.87
48424;BME280;34232;42.502;26.014;2024-01-15T02:28:16;99687.78;;;-2.82;69.47
48424;BME280;34232;42.502;26.014;2024-01-15T02:30:42;99684.56;;;-2.89;69.32
48424;BME280;34232;42.502;26.014;2024-01-15T02:33:08;99685.59;;;-2.93;69.16
48424;BME280;34232;42.502;26.014;2024-01-15T02:35:33;99687.03;;;-3.10;68.77
48424;BME280;34232;42.502;26.014;2024-01-15T02:37:59;99686.47;;;-3.20;69.75
48424;BME280;34232;42.502;26.014;2024-01-15T02:40:24;99685.81;;;-3.25;69.79
48424;BME280;34232;42.502;26.014;2024-01-15T02:42:49;99679.88;;;-3.27;70.38
48424;BME280;34232;42.502;26.014;2024-01-15T02:45:15;99676.78;;;-3.38;70.99
48424;BME280;34232;42.502;26.014;2024-01-15T02:47:40;99674.06;;;-3.34;70.02
48424;BME280;34232;42.502;26.014;2024-01-15T02:50:06;99677.47;;;-3.33;69.96
48424;BME280;34232;42.502;26.014;2024-01-15T02:52:31;99670.56;;;-3.31;69.73
48424;BME280;34232;42.502;26.014;2024-01-15T02:54:56;99667.28;;;-3.36;70.44
48424;BME280;34232;42.502;26.014;2024-01-15T02:57:22;99678.28;;;-3.31;70.54
48424;BME280;34232;42.502;26.014;2024-01-15T02:59:47;99667.88;;;-3.28;70.09
48424;BME280;34232;42.502;26.014;2024-01-15T03:02:12;99663.50;;;-3.25;69.78
48424;BME280;34232;42.502;26.014;2024-01-15T03:04:42;99669.34;;;-3.21;70.62
48424;BME280;34232;42.502;26.014;2024-01-15T03:07:07;99661.44;;;-3.15;70.50
48424;BME280;34232;42.502;26.014;2024-01-15T03:09:33;99658.16;;;-3.20;70.39
48424;BME280;34232;42.502;26.014;2024-01-15T03:11:58;99665.13;;;-3.24;70.17
48424;BME280;34232;42.502;26.014;2024-01-15T03:14:23;99653.25;;;-3.26;70.65
48424;BME280;34232;42.502;26.014;2024-01-15T03:16:51;99656.00;;;-3.32;70.67
48424;BME280;34232;42.502;26.014;2024-01-15T03:19:16;99651.16;;;-3.41;70.47
48424;BME280;34232;42.502;26.014;2024-01-15T03:21:41;99647.91;;;-3.46;70.79
48424;BME280;34232;42.502;26.014;2024-01-15T03:24:07;99647.00;;;-3.45;71.31
48424;BME280;34232;42.502;26.014;2024-01-15T03:26:32;99645.38;;;-3.48;72.18
48424;BME280;34232;42.502;26.014;2024-01-15T03:28:57;99652.19;;;-3.47;71.25
48424;BME280;34232;42.502;26.014;2024-01-15T03:31:22;99653.00;;;-3.45;71.67
48424;BME280;34232;42.502;26.014;2024-01-15T03:33:48;99652.81;;;-3.40;71.90
48424;BME280;34232;42.502;26.014;2024-01-15T03:36:13;99651.03;;;-3.38;71.99
48424;BME280;34232;42.502;26.014;2024-01-15T03:38:40;99652.53;;;-3.31;71.03
48424;BME280;34232;42.502;26.014;2024-01-15T03:41:06;99652.50;;;-3.30;70.16
48424;BME280;34232;42.502;26.014;2024-01-15T03:43:31;99651.50;;;-3.26;69.91
48424;BME280;34232;42.502;26.014;2024-01-15T03:45:57;99665.13;;;-3.24;69.38
48424;BME280;34232;42.502;26.014;2024-01-15T03:48:22;99671.13;;;-3.23;70.41
48424;BME280;34232;42.502;26.014;2024-01-15T03:50:47;99671.03;;;-3.20;70.36
48424;BME280;34232;42.502;26.014;2024-01-15T03:53:13;99669.25;;;-3.18;71.07
48424;BME280;34232;42.502;26.014;2024-01-15T03:55:38;99668.31;;;-3.15;71.38
48424;BME280;34232;42.502;26.014;2024-01-15T03:58:03;99677.59;;;-3.10;70.70
48424;BME280;34232;42.502;26.014;2024-01-15T04:00:28;99675.78;;;-3.08;70.41
48424;BME280;34232;42.502;26.014;2024-01-15T04:02:54;99681.66;;;-3.04;70.88
48424;BME280;34232;42.502;26.014;2024-01-15T04:05:19;99685.19;;;-3.07;70.65
48424;BME280;34232;42.502;26.014;2024-01-15T04:07:44;99694.50;;;-3.03;70.24
48424;BME280;34232;42.502;26.014;2024-01-15T04:10:10;99694.41;;;-3.00;69.92
48424;BME280;34232;42.502;26.014;2024-01-15T04:12:35;99701.13;;;-2.96;70.14
48424;BME280;34232;42.502;26.014;2024-01-15T04:17:28;99698.28;;;-2.88;70.31
48424;BME280;34232;42.502;26.014;2024-01-15T04:19:53;99702.41;;;-2.83;70.70
48424;BME280;34232;42.502;26.014;2024-01-15T04:22:19;99699.63;;;-2.76;70.47
48424;BME280;34232;42.502;26.014;2024-01-15T04:24:44;99687.41;;;-2.71;70.17
48424;BME280;34232;42.502;26.014;2024-01-15T04:27:09;99683.94;;;-2.70;70.61
48424;BME280;34232;42.502;26.014;2024-01-15T04:29:37;99679.59;;;-2.68;70.75
48424;BME280;34232;42.502;26.014;2024-01-15T04:32:02;99680.38;;;-2.66;70.44
48424;BME280;34232;42.502;26.014;2024-01-15T04:34:28;99674.53;;;-2.71;70.09
48424;BME280;34232;42.502;26.014;2024-01-15T04:36:53;99669.63;;;-2.77;68.93
48424;BME280;34232;42.502;26.014;2024-01-15T04:39:18;99671.31;;;-2.76;68.88
48424;BME280;34232;42.502;26.014;2024-01-15T04:41:44;99672.00;;;-2.73;69.15
48424;BME280;34232;42.502;26.014;2024-01-15T04:44:09;99669.63;;;-2.77;68.44
48424;BME280;34232;42.502;26.014;2024-01-15T04:46:34;99662.00;;;-2.80;69.19
48424;BME280;34232;42.502;26.014;2024-01-15T04:49:00;99665.50;;;-2.83;69.06
48424;BME280;34232;42.502;26.014;2024-01-15T04:51:25;99676.84;;;-2.89;69.60
48424;BME280;34232;42.502;26.014;2024-01-15T04:53:50;99666.66;;;-2.92;69.27
48424;BME280;34232;42.502;26.014;2024-01-15T04:56:15;99671.00;;;-2.92;69.46
48424;BME280;34232;42.502;26.014;2024-01-15T04:58:41;99667.75;;;-2.99;69.38
48424;BME280;34232;42.502;26.014;2024-01-15T05:01:07;99665.25;;;-3.00;69.00
48424;BME280;34232;42.502;26.014;2024-01-15T05:03:33;99664.50;;;-3.04;69.10
48424;BME280;34232;42.502;26.014;2024-01-15T05:05:58;99654.81;;;-3.22;69.03
48424;BME280;34232;42.502;26.014;2024-01-15T05:08:23;99652.34;;;-3.25;69.50
48424;BME280;34232;42.502;26.014;2024-01-15T05:10:49;99650.84;;;-3.32;69.94
48424;BME280;34232;42.502;26.014;2024-01-15T05:13:14;99658.63;;;-3.34;69.94
48424;BME280;34232;42.502;26.014;2024-01-15T05:15:40;99658.19;;;-3.46;70.71
48424;BME280;34232;42.502;26.014;2024-01-15T05:18:05;99661.66;;;-3.47;71.10
48424;BME280;34232;42.502;26.014;2024-01-15T05:20:31;99657.06;;;-3.39;71.24
48424;BME280;34232;42.502;26.014;2024-01-15T05:22:56;99654.72;;;-3.45;70.76
48424;BME280;34232;42.502;26.014;2024-01-15T05:25:22;99659.06;;;-3.47;71.31
48424;BME280;34232;42.502;26.014;2024-01-15T05:27:47;99651.53;;;-3.54;71.76
48424;BME280;34232;42.502;26.014;2024-01-15T05:30:13;99654.16;;;-3.55;71.26
48424;BME280;34232;42.502;26.014;2024-01-15T05:32:38;99650.06;;;-3.61;71.58
48424;BME280;34232;42.502;26.014;2024-01-15T05:35:04;99657.72;;;-3.59;72.51
48424;BME280;34232;42.502;26.014;2024-01-15T05:37:29;99658.75;;;-3.65;71.95
48424;BME280;34232;42.502;26.014;2024-01-15T05:39:54;99655.88;;;-3.56;72.01
48424;BME280;34232;42.502;26.014;2024-01-15T05:42:20;99653.13;;;-3.49;72.01
48424;BME280;34232;42.502;26.014;2024-01-15T05:44:45;99652.19;;;-3.47;72.39
48424;BME280;34232;42.502;26.014;2024-01-15T05:47:10;99654.63;;;-3.42;72.32
48424;BME280;34232;42.502;26.014;2024-01-15T05:49:36;99662.13;;;-3.36;72.29
48424;BME280;34232;42.502;26.014;2024-01-15T05:52:01;99660.25;;;-3.31;72.60
48424;BME280;34232;42.502;26.014;2024-01-15T05:54:26;99660.06;;;-3.25;72.41
48424;BME280;34232;42.502;26.014;2024-01-15T05:56:52;99653.72;;;-3.15;72.11
48424;BME280;34232;42.502;26.014;2024-01-15T05:59:17;99653.53;;;-3.09;71.38
48424;BME280;34232;42.502;26.014;2024-01-15T06:01:42;99656.16;;;-3.10;70.90
48424;BME280;34232;42.502;26.014;2024-01-15T06:04:07;99656.72;;;-3.02;71.15
48424;BME280;34232;42.502;26.014;2024-01-15T06:06:33;99653.13;;;-2.97;71.30
48424;BME280;34232;42.502;26.014;2024-01-15T06:08:58;99651.19;;;-2.92;70.28
48424;BME280;34232;42.502;26.014;2024-01-15T06:11:30;99644.25;;;-2.90;69.95
48424;BME280;34232;42.502;26.014;2024-01-15T06:13:56;99631.72;;;-2.99;69.54
48424;BME280;34232;42.502;26.014;2024-01-15T06:16:21;99627.56;;;-3.03;69.99
48424;BME280;34232;42.502;26.014;2024-01-15T06:18:47;99634.28;;;-2.99;69.92
48424;BME280;34232;42.502;26.014;2024-01-15T06:21:12;99636.06;;;-3.01;70.69
48424;BME280;34232;42.502;26.014;2024-01-15T06:23:39;99627.25;;;-2.94;70.78
48424;BME280;34232;42.502;26.014;2024-01-15T06:26:05;99638.13;;;-2.86;71.04
48424;BME280;34232;42.502;26.014;2024-01-15T06:28:30;99635.31;;;-2.78;70.74
48424;BME280;34232;42.502;26.014;2024-01-15T06:30:56;99633.44;;;-2.74;70.53
48424;BME280;34232;42.502;26.014;2024-01-15T06:33:21;99622.19;;;-2.72;70.35
48424;BME280;34232;42.502;26.014;2024-01-15T06:35:47;99628.03;;;-2.67;70.34
48424;BME280;34232;42.502;26.014;2024-01-15T06:38:12;99636.69;;;-2.69;71.36
48424;BME280;34232;42.502;26.014;2024-01-15T06:40:38;99648.44;;;-2.61;71.45
48424;BME280;34232;42.502;26.014;2024-01-15T06:43:06;99649.72;;;-2.49;71.52
48424;BME280;34232;42.502;26.014;2024-01-15T06:45:32;99647.59;;;-2.38;72.07
48424;BME280;34232;42.502;26.014;2024-01-15T06:47:57;99648.94;;;-2.28;72.32
48424;BME280;34232;42.502;26.014;2024-01-15T06:50:23;99650.28;;;-2.18;72.54
48424;BME280;34232;42.502;26.014;2024-01-15T06:52:48;99637.94;;;-2.09;72.36
48424;BME280;34232;42.502;26.014;2024-01-15T06:55:14;99640.84;;;-1.95;72.77
48424;BME280;34232;42.502;26.014;2024-01-15T06:57:39;99631.63;;;-1.79;72.66
48424;BME280;34232;42.502;26.014;2024-01-15T07:00:04;99636.03;;;-1.61;73.04
48424;BME280;34232;42.502;26.014;2024-01-15T07:02:32;99631.00;;;-1.42;73.23
48424;BME280;34232;42.502;26.014;2024-01-15T07:04:58;99630.31;;;-1.25;72.66
48424;BME280;34232;42.502;26.014;2024-01-15T07:07:23;99625.16;;;-1.05;72.71
48424;BME280;34232;42.502;26.014;2024-01-15T07:09:48;99625.28;;;-0.88;72.78
48424;BME280;34232;42.502;26.014;2024-01-15T07:12:17;99620.25;;;-0.71;72.06
48424;BME280;34232;42.502;26.014;2024-01-15T07:14:42;99617.19;;;-0.60;72.41
48424;BME280;34232;42.502;26.014;2024-01-15T07:17:08;99624.47;;;-0.49;72.58
48424;BME280;34232;42.502;26.014;2024-01-15T07:19:33;99620.81;;;-0.45;72.64
48424;BME280;34232;42.502;26.014;2024-01-15T07:21:58;99617.84;;;-0.36;73.44
48424;BME280;34232;42.502;26.014;2024-01-15T07:24:24;99626.31;;;-0.32;73.80
48424;BME280;34232;42.502;26.014;2024-01-15T07:26:49;99629.94;;;-0.18;73.61
48424;BME280;34232;42.502;26.014;2024-01-15T07:29:14;99635.53;;;-0.08;72.55
48424;BME280;34232;42.502;26.014;2024-01-15T07:31:40;99635.19;;;-0.01;72.02
48424;BME280;34232;42.502;26.014;2024-01-15T07:34:05;99636.03;;;0.00;71.42
48424;BME280;34232;42.502;26.014;2024-01-15T07:36:30;99634.56;;;-0.06;72.31
48424;BME280;34232;42.502;26.014;2024-01-15T07:38:56;99621.81;;;0.09;72.37
48424;BME280;34232;42.502;26.014;2024-01-15T07:41:21;99624.72;;;0.20;71.93
48424;BME280;34232;42.502;26.014;2024-01-15T07:43:48;99625.53;;;0.39;71.51
48424;BME280;34232;42.502;26.014;2024-01-15T07:46:13;99619.19;;;0.63;70.26
48424;BME280;34232;42.502;26.014;2024-01-15T07:48:39;99622.38;;;0.68;69.75
48424;BME280;34232;42.502;26.014;2024-01-15T07:51:04;99619.94;;;0.83;69.19
48424;BME280;34232;42.502;26.014;2024-01-15T07:53:29;99619.38;;;0.95;68.89
48424;BME280;34232;42.502;26.014;2024-01-15T07:55:55;99625.69;;;0.89;67.90
48424;BME280;34232;42.502;26.014;2024-01-15T07:58:20;99618.03;;;1.03;67.80
48424;BME280;34232;42.502;26.014;2024-01-15T08:00:45;99612.63;;;1.08;67.67
48424;BME280;34232;42.502;26.014;2024-01-15T08:03:11;99613.75;;;1.20;67.03
48424;BME280;34232;42.502;26.014;2024-01-15T08:05:36;99624.03;;;1.38;66.89
48424;BME280;34232;42.502;26.014;2024-01-15T08:08:02;99618.16;;;1.35;66.29
48424;BME280;34232;42.502;26.014;2024-01-15T08:10:27;99624.63;;;1.44;66.55
48424;BME280;34232;42.502;26.014;2024-01-15T08:12:54;99625.06;;;1.52;66.46
48424;BME280;34232;42.502;26.014;2024-01-15T08:15:20;99631.22;;;1.82;66.69
48424;BME280;34232;42.502;26.014;2024-01-15T08:17:45;99642.72;;;2.09;65.67
48424;BME280;34232;42.502;26.014;2024-01-15T08:20:10;99629.31;;;2.33;65.07
48424;BME280;34232;42.502;26.014;2024-01-15T08:22:38;99623.28;;;2.17;65.08
48424;BME280;34232;42.502;26.014;2024-01-15T08:25:03;99608.69;;;2.30;65.17
48424;BME280;34232;42.502;26.014;2024-01-15T08:27:29;99609.53;;;2.46;64.55
48424;BME280;34232;42.502;26.014;2024-01-15T08:29:54;99597.38;;;2.76;63.63
48424;BME280;34232;42.502;26.014;2024-01-15T08:32:19;99600.16;;;3.03;62.98
48424;BME280;34232;42.502;26.014;2024-01-15T08:34:45;99594.69;;;3.22;62.01
48424;BME280;34232;42.502;26.014;2024-01-15T08:37:12;99592.47;;;3.30;60.57
48424;BME280;34232;42.502;26.014;2024-01-15T08:39:37;99591.28;;;3.36;61.29
48424;BME280;34232;42.502;26.014;2024-01-15T08:42:04;99605.47;;;3.59;60.58
48424;BME280;34232;42.502;26.014;2024-01-15T08:44:29;99608.72;;;3.62;59.63
48424;BME280;34232;42.502;26.014;2024-01-15T08:46:54;99600.47;;;3.70;59.53
48424;BME280;34232;42.502;26.014;2024-01-15T08:49:19;99592.22;;;3.90;58.03
48424;BME280;34232;42.502;26.014;2024-01-15T08:51:45;99587.31;;;4.00;58.07
48424;BME280;34232;42.502;26.014;2024-01-15T08:54:10;99569.03;;;4.14;58.15
48424;BME280;34232;42.502;26.014;2024-01-15T08:56:36;99575.31;;;4.24;58.71
48424;BME280;34232;42.502;26.014;2024-01-15T08:59:01;99575.16;;;4.40;59.13
48424;BME280;34232;42.502;26.014;2024-01-15T09:01:26;99557.94;;;4.64;58.58
48424;BME280;34232;42.502;26.014;2024-01-15T09:03:52;99564.13;;;4.88;58.01
48424;BME280;34232;42.502;26.014;2024-01-15T09:06:17;99554.47;;;5.16;59.08
48424;BME280;34232;42.502;26.014;2024-01-15T09:08:42;99545.56;;;5.31;59.63
48424;BME280;34232;42.502;26.014;2024-01-15T09:11:08;99549.72;;;5.46;58.24
48424;BME280;34232;42.502;26.014;2024-01-15T09:13:33;99543.13;;;5.53;57.28
48424;BME280;34232;42.502;26.014;2024-01-15T09:15:59;99533.53;;;5.54;57.52
48424;BME280;34232;42.502;26.014;2024-01-15T09:18:25;99543.34;;;5.63;57.69
48424;BME280;34232;42.502;26.014;2024-01-15T09:20:50;99543.13;;;5.66;57.21
48424;BME280;34232;42.502;26.014;2024-01-15T09:23:15;99546.47;;;5.55;57.15
48424;BME280;34232;42.502;26.014;2024-01-15T09:25:41;99537.28;;;5.62;58.11
48424;BME280;34232;42.502;26.014;2024-01-15T09:28:06;99539.13;;;5.73;55.87
48424;BME280;34232;42.502;26.014;2024-01-15T09:30:31;99538.75;;;5.67;55.01
48424;BME280;34232;42.502;26.014;2024-01-15T09:32:57;99542.88;;;5.69;55.69
48424;BME280;34232;42.502;26.014;2024-01-15T09:35:23;99536.03;;;5.68;55.88
48424;BME280;34232;42.502;26.014;2024-01-15T09:37:48;99532.25;;;5.59;54.65
48424;BME280;34232;42.502;26.014;2024-01-15T09:40:14;99519.88;;;5.50;54.44
48424;BME280;34232;42.502;26.014;2024-01-15T09:42:42;99514.34;;;5.42;54.34
48424;BME280;34232;42.502;26.014;2024-01-15T09:45:08;99507.25;;;5.44;53.55
48424;BME280;34232;42.502;26.014;2024-01-15T09:47:34;99498.06;;;5.39;53.53
48424;BME280;34232;42.502;26.014;2024-01-15T09:50:00;99493.03;;;5.48;53.11
48424;BME280;34232;42.502;26.014;2024-01-15T09:52:25;99489.38;;;5.51;52.80
48424;BME280;34232;42.502;26.014;2024-01-15T09:54:51;99491.38;;;5.47;52.89
48424;BME280;34232;42.502;26.014;2024-01-15T09:57:17;99480.47;;;5.53;52.97
48424;BME280;34232;42.502;26.014;2024-01-15T09:59:42;99470.13;;;5.65;52.79
48424;BME280;34232;42.502;26.014;2024-01-15T10:02:08;99462.25;;;5.77;52.75
48424;BME280;34232;42.502;26.014;2024-01-15T10:04:34;99464.72;;;5.91;52.24
48424;BME280;34232;42.502;26.014;2024-01-15T10:07:00;99459.88;;;5.98;52.78
48424;BME280;34232;42.502;26.014;2024-01-15T10:09:26;99461.19;;;6.04;50.76
48424;BME280;34232;42.502;26.014;2024-01-15T10:11:51;99453.75;;;6.10;51.33
48424;BME280;34232;42.502;26.014;2024-01-15T10:14:16;99427.88;;;6.18;51.72
48424;BME280;34232;42.502;26.014;2024-01-15T10:16:42;99426.00;;;6.20;52.41
48424;BME280;34232;42.502;26.014;2024-01-15T10:19:07;99424.81;;;6.24;52.57
48424;BME280;34232;42.502;26.014;2024-01-15T10:21:33;99424.06;;;6.11;54.06
48424;BME280;34232;42.502;26.014;2024-01-15T10:24:01;99413.41;;;6.14;54.23
48424;BME280;34232;42.502;26.014;2024-01-15T10:26:27;99401.28;;;6.13;54.84
48424;BME280;34232;42.502;26.014;2024-01-15T10:28:53;99415.53;;;6.20;54.50
48424;BME280;34232;42.502;26.014;2024-01-15T10:31:18;99408.91;;;6.27;53.92
48424;BME280;34232;42.502;26.014;2024-01-15T10:33:44;99394.41;;;6.35;54.37
48424;BME280;34232;42.502;26.014;2024-01-15T10:36:10;99392.91;;;6.43;54.60
48424;BME280;34232;42.502;26.014;2024-01-15T10:38:36;99394.91;;;6.40;54.02
48424;BME280;34232;42.502;26.014;2024-01-15T10:41:01;99392.69;;;6.46;53.64
48424;BME280;34232;42.502;26.014;2024-01-15T10:43:27;99384.22;;;6.54;53.51
48424;BME280;34232;42.502;26.014;2024-01-15T10:45:52;99379.50;;;6.59;53.52
48424;BME280;34232;42.502;26.014;2024-01-15T10:48:18;99374.03;;;6.62;53.89
48424;BME280;34232;42.502;26.014;2024-01-15T10:50:44;99376.16;;;6.68;54.15
48424;BME280;34232;42.502;26.014;2024-01-15T10:53:11;99389.22;;;6.68;54.57
48424;BME280;34232;42.502;26.014;2024-01-15T10:55:37;99382.34;;;6.67;55.04
48424;BME280;34232;42.502;26.014;2024-01-15T10:58:03;99377.81;;;6.69;54.86
48424;BME280;34232;42.502;26.014;2024-01-15T11:00:33;99372.13;;;6.75;54.98
48424;BME280;34232;42.502;26.014;2024-01-15T11:02:58;99368.06;;;6.82;55.13
48424;BME280;34232;42.502;26.014;2024-01-15T11:05:25;99369.28;;;6.89;55.07
48424;BME280;34232;42.502;26.014;2024-01-15T11:07:54;99360.25;;;6.93;54.95
48424;BME280;34232;42.502;26.014;2024-01-15T11:13:07;99347.88;;;6.95;54.18
48424;BME280;34232;42.502;26.014;2024-01-15T11:15:33;99341.81;;;6.95;54.02
48424;BME280;34232;42.502;26.014;2024-01-15T11:18:20;99337.13;;;6.98;54.15
48424;BME280;34232;42.502;26.014;2024-01-15T11:23:47;99334.91;;;6.94;54.48
48424;BME280;34232;42.502;26.014;2024-01-15T11:26:32;99326.44;;;7.01;54.17
48424;BME280;34232;42.502;26.014;2024-01-15T11:28:59;99321.44;;;7.10;54.34
48424;BME280;34232;42.502;26.014;2024-01-15T11:34:05;99299.47;;;7.33;53.97
48424;BME280;34232;42.502;26.014;2024-01-15T11:41:56;99287.56;;;7.82;52.84
48424;BME280;34232;42.502;26.014;2024-01-15T11:44:21;99282.28;;;7.93;51.82
48424;BME280;34232;42.502;26.014;2024-01-15T11:46:52;99286.25;;;8.08;51.08
48424;BME280;34232;42.502;26.014;2024-01-15T11:49:29;99287.78;;;8.11;50.68
48424;BME280;34232;42.502;26.014;2024-01-15T11:52:04;99288.78;;;8.19;51.25
48424;BME280;34232;42.502;26.014;2024-01-15T11:54:30;99302.06;;;8.27;50.69
48424;BME280;34232;42.502;26.014;2024-01-15T11:56:59;99308.69;;;8.31;50.84
48424;BME280;34232;42.502;26.014;2024-01-15T11:59:25;99315.63;;;8.32;50.79
48424;BME280;34232;42.502;26.014;2024-01-15T12:01:50;99307.03;;;8.30;50.38
48424;BME280;34232;42.502;26.014;2024-01-15T12:04:16;99306.97;;;8.11;51.28
48424;BME280;34232;42.502;26.014;2024-01-15T12:06:44;99299.25;;;8.19;51.03
48424;BME280;34232;42.502;26.014;2024-01-15T12:09:10;99294.81;;;8.10;51.70
48424;BME280;34232;42.502;26.014;2024-01-15T12:11:35;99292.47;;;8.17;51.65
48424;BME280;34232;42.502;26.014;2024-01-15T12:14:01;99294.34;;;8.26;51.74
48424;BME280;34232;42.502;26.014;2024-01-15T12:16:26;99295.16;;;8.26;51.52
48424;BME280;34232;42.502;26.014;2024-01-15T12:18:52;99290.34;;;8.31;51.92
48424;BME280;34232;42.502;26.014;2024-01-15T12:21:17;99289.88;;;8.37;52.14
48424;BME280;34232;42.502;26.014;2024-01-15T12:23:45;99278.50;;;7.86;53.48
48424;BME280;34232;42.502;26.014;2024-01-15T12:26:11;99265.41;;;7.86;53.21
48424;BME280;34232;42.502;26.014;2024-01-15T12:28:36;99264.00;;;7.82;53.95
48424;BME280;34232;42.502;26.014;2024-01-15T12:31:01;99272.38;;;7.76;54.38
48424;BME280;34232;42.502;26.014;2024-01-15T12:33:30;99280.75;;;7.90;54.33
48424;BME280;34232;42.502;26.014;2024-01-15T12:35:55;99296.09;;;7.95;54.00
48424;BME280;34232;42.502;26.014;2024-01-15T12:38:21;99293.47;;;7.95;54.16
48424;BME280;34232;42.502;26.014;2024-01-15T12:40:46;99282.59;;;7.99;54.36
48424;BME280;34232;42.502;26.014;2024-01-15T12:43:11;99272.94;;;8.00;54.20
48424;BME280;34232;42.502;26.014;2024-01-15T12:45:37;99274.59;;;8.01;54.73
48424;BME280;34232;42.502;26.014;2024-01-15T12:48:05;99271.03;;;7.60;55.76
48424;BME280;34232;42.502;26.014;2024-01-15T12:50:31;99275.19;;;7.31;57.45
48424;BME280;34232;42.502;26.014;2024-01-15T12:52:58;99264.22;;;7.37;57.08
48424;BME280;34232;42.502;26.014;2024-01-15T12:55:24;99253.97;;;7.45;56.92
48424;BME280;34232;42.502;26.014;2024-01-15T12:57:50;99233.81;;;7.25;57.34
48424;BME280;34232;42.502;26.014;2024-01-15T13:00:19;99242.16;;;7.30;57.98
48424;BME280;34232;42.502;26.014;2024-01-15T13:02:44;99239.84;;;7.36;57.80
48424;BME280;34232;42.502;26.014;2024-01-15T13:05:10;99251.34;;;7.45;57.39
48424;BME280;34232;42.502;26.014;2024-01-15T13:07:39;99245.00;;;7.48;57.06